EZS79YP LSGG-LPPT
Flight info
| Callsign | EZS79YP |
|---|---|
| Flight time | 2h 11m |
| Altitude | 29000 |
| Route | DEPUL T544 LSE DCT RUSIT DCT ESIDA/N0426F310 DCT LERGA/N0450F390 DCT MINSO DCT NARAK DCT AGN DCT LATEK DCT PPN DCT MIRPO DCT DGO DCT NEA DCT ARDID DCT INBOM INBOM2A |
| Aircraft | A320/M-SDE2E3FGHIJ1RWXYZ/LB1 |
Departure
| Time | 2026-05-06 04:14 |
|---|---|
| Airport | Geneva International Airport (LSGG) |
Arrival
| Time | 2026-05-06 06:25 |
|---|---|
| Airport | Lisbon Humberto Delgado Airport (LPPT) |
| Time | Latitude | Longitude | Altitude | Speed | Heading |
|---|---|---|---|---|---|
| 2026-05-06 03:18 | 46.23009 | 6.10343 | 1401 ft | 0 kts | 90° |
| 2026-05-06 04:07 | 46.23009 | 6.10386 | 1393 ft | 10 kts | 89° |
| 2026-05-06 04:08 | 46.23050 | 6.10488 | 1396 ft | 12 kts | 46° |
| 2026-05-06 04:08 | 46.23103 | 6.10567 | 1396 ft | 10 kts | 45° |
| 2026-05-06 04:08 | 46.23155 | 6.10643 | 1402 ft | 12 kts | 45° |
| 2026-05-06 04:08 | 46.23222 | 6.10742 | 1393 ft | 14 kts | 45° |
| 2026-05-06 04:09 | 46.23310 | 6.10800 | 1396 ft | 14 kts | 20° |
| 2026-05-06 04:09 | 46.23388 | 6.10892 | 1397 ft | 16 kts | 45° |
| 2026-05-06 04:09 | 46.23469 | 6.11012 | 1398 ft | 17 kts | 45° |
| 2026-05-06 04:09 | 46.23552 | 6.11133 | 1398 ft | 13 kts | 45° |
| 2026-05-06 04:10 | 46.23609 | 6.11151 | 1392 ft | 9 kts | 325° |
| 2026-05-06 04:10 | 46.23657 | 6.11086 | 1385 ft | 11 kts | 317° |
| 2026-05-06 04:10 | 46.23724 | 6.11107 | 1385 ft | 13 kts | 45° |
| 2026-05-06 04:10 | 46.23805 | 6.11226 | 1376 ft | 19 kts | 45° |
| 2026-05-06 04:11 | 46.23903 | 6.11371 | 1374 ft | 22 kts | 45° |
| 2026-05-06 04:11 | 46.24019 | 6.11541 | 1371 ft | 25 kts | 45° |
| 2026-05-06 04:11 | 46.24147 | 6.11728 | 1365 ft | 28 kts | 45° |
| 2026-05-06 04:11 | 46.24258 | 6.11892 | 1361 ft | 16 kts | 45° |
| 2026-05-06 04:12 | 46.24317 | 6.11935 | 1364 ft | 8 kts | 346° |
| 2026-05-06 04:12 | 46.24336 | 6.11850 | 1366 ft | 12 kts | 257° |
| 2026-05-06 04:12 | 46.24317 | 6.11744 | 1369 ft | 9 kts | 263° |
| 2026-05-06 04:12 | 46.24328 | 6.11669 | 1372 ft | 6 kts | 264° |
| 2026-05-06 04:13 | 46.24310 | 6.11635 | 1373 ft | 3 kts | 225° |
| 2026-05-06 04:13 | 46.24220 | 6.11504 | 1374 ft | 51 kts | 225° |
| 2026-05-06 04:13 | 46.23802 | 6.10890 | 1379 ft | 117 kts | 225° |
| 2026-05-06 04:13 | 46.23101 | 6.09863 | 1432 ft | 165 kts | 224° |
| 2026-05-06 04:14 | 46.22296 | 6.08679 | 2099 ft | 164 kts | 225° |
| 2026-05-06 04:14 | 46.21502 | 6.07507 | 2900 ft | 162 kts | 226° |
| 2026-05-06 04:14 | 46.20713 | 6.06348 | 3592 ft | 161 kts | 226° |
| 2026-05-06 04:14 | 46.19929 | 6.05199 | 4220 ft | 160 kts | 226° |
| 2026-05-06 04:15 | 46.19145 | 6.04053 | 4762 ft | 165 kts | 227° |
| 2026-05-06 04:15 | 46.18288 | 6.02798 | 5018 ft | 187 kts | 226° |
| 2026-05-06 04:15 | 46.17319 | 6.01384 | 5235 ft | 210 kts | 226° |
| 2026-05-06 04:15 | 46.16230 | 5.99792 | 5502 ft | 236 kts | 225° |
| 2026-05-06 04:16 | 46.15019 | 5.98000 | 5945 ft | 259 kts | 226° |
| 2026-05-06 04:16 | 46.13757 | 5.96104 | 6711 ft | 265 kts | 225° |
| 2026-05-06 04:16 | 46.12599 | 5.94023 | 7545 ft | 270 kts | 238° |
| 2026-05-06 04:16 | 46.11640 | 5.91672 | 8387 ft | 273 kts | 236° |
| 2026-05-06 04:17 | 46.10617 | 5.89350 | 9223 ft | 277 kts | 234° |
| 2026-05-06 04:17 | 46.09549 | 5.87013 | 10024 ft | 281 kts | 234° |
| 2026-05-06 04:17 | 46.08424 | 5.84586 | 10368 ft | 303 kts | 234° |
| 2026-05-06 04:17 | 46.07220 | 5.81988 | 10804 ft | 317 kts | 234° |
| 2026-05-06 04:18 | 46.05989 | 5.79314 | 11530 ft | 322 kts | 234° |
| 2026-05-06 04:18 | 46.04749 | 5.76607 | 12288 ft | 326 kts | 234° |
| 2026-05-06 04:18 | 46.03495 | 5.73869 | 13064 ft | 329 kts | 234° |
| 2026-05-06 04:18 | 46.02232 | 5.71109 | 13802 ft | 332 kts | 235° |
| 2026-05-06 04:19 | 46.00962 | 5.68329 | 14522 ft | 333 kts | 235° |
| 2026-05-06 04:19 | 45.99682 | 5.65534 | 15194 ft | 336 kts | 234° |
| 2026-05-06 04:19 | 45.98392 | 5.62718 | 15833 ft | 339 kts | 234° |
| 2026-05-06 04:19 | 45.97091 | 5.59878 | 16478 ft | 342 kts | 235° |
| 2026-05-06 04:20 | 45.95793 | 5.56996 | 17121 ft | 345 kts | 236° |
| 2026-05-06 04:20 | 45.94501 | 5.54072 | 17753 ft | 350 kts | 236° |
| 2026-05-06 04:20 | 45.93198 | 5.51100 | 18293 ft | 355 kts | 235° |
| 2026-05-06 04:20 | 45.91873 | 5.48073 | 18757 ft | 363 kts | 235° |
| 2026-05-06 04:21 | 45.90530 | 5.45011 | 19345 ft | 361 kts | 235° |
| 2026-05-06 04:21 | 45.89202 | 5.42003 | 19843 ft | 362 kts | 234° |
| 2026-05-06 04:21 | 45.87846 | 5.38937 | 20313 ft | 365 kts | 235° |
| 2026-05-06 04:21 | 45.86485 | 5.35858 | 20820 ft | 366 kts | 234° |
| 2026-05-06 04:22 | 45.85117 | 5.32759 | 21290 ft | 371 kts | 235° |
| 2026-05-06 04:22 | 45.83737 | 5.29638 | 21812 ft | 371 kts | 234° |
| 2026-05-06 04:22 | 45.82342 | 5.26495 | 22322 ft | 376 kts | 235° |
| 2026-05-06 04:23 | 45.79526 | 5.20141 | 23400 ft | 378 kts | 234° |
| 2026-05-06 04:23 | 45.78105 | 5.16963 | 23800 ft | 380 kts | 234° |
| 2026-05-06 04:23 | 45.76663 | 5.13770 | 24186 ft | 383 kts | 233° |
| 2026-05-06 04:23 | 45.75217 | 5.10566 | 24557 ft | 384 kts | 233° |
| 2026-05-06 04:24 | 45.73788 | 5.07303 | 24832 ft | 391 kts | 236° |
| 2026-05-06 04:24 | 45.72418 | 5.03907 | 25119 ft | 396 kts | 237° |
| 2026-05-06 04:24 | 45.71092 | 5.00440 | 25449 ft | 399 kts | 238° |
| 2026-05-06 04:24 | 45.69779 | 4.96936 | 25804 ft | 402 kts | 238° |
| 2026-05-06 04:25 | 45.68444 | 4.93407 | 26187 ft | 404 kts | 237° |
| 2026-05-06 04:25 | 45.67094 | 4.89855 | 26583 ft | 407 kts | 237° |
| 2026-05-06 04:25 | 45.65754 | 4.86278 | 26966 ft | 409 kts | 238° |
| 2026-05-06 04:25 | 45.64454 | 4.82647 | 27303 ft | 412 kts | 239° |
| 2026-05-06 04:26 | 45.63170 | 4.78971 | 27655 ft | 415 kts | 239° |
| 2026-05-06 04:26 | 45.61885 | 4.75263 | 27997 ft | 417 kts | 239° |
| 2026-05-06 04:26 | 45.60589 | 4.71542 | 28365 ft | 420 kts | 238° |
| 2026-05-06 04:26 | 45.59279 | 4.67810 | 28745 ft | 422 kts | 238° |
| 2026-05-06 04:27 | 45.57951 | 4.64058 | 29030 ft | 426 kts | 238° |
| 2026-05-06 04:27 | 45.56605 | 4.60275 | 29353 ft | 428 kts | 237° |
| 2026-05-06 04:27 | 45.55249 | 4.56475 | 29685 ft | 431 kts | 237° |
| 2026-05-06 04:27 | 45.53886 | 4.52659 | 29999 ft | 433 kts | 237° |
| 2026-05-06 04:28 | 45.52516 | 4.48834 | 30286 ft | 434 kts | 237° |
| 2026-05-06 04:28 | 45.51604 | 4.46291 | 30492 ft | 435 kts | 237° |
| 2026-05-06 04:28 | 45.50225 | 4.42456 | 30803 ft | 435 kts | 237° |
| 2026-05-06 04:28 | 45.48843 | 4.38613 | 31125 ft | 435 kts | 239° |
| 2026-05-06 04:29 | 45.47474 | 4.34794 | 31600 ft | 431 kts | 239° |
| 2026-05-06 04:29 | 45.46115 | 4.31005 | 32066 ft | 427 kts | 239° |
| 2026-05-06 04:29 | 45.44769 | 4.27257 | 32540 ft | 424 kts | 239° |
| 2026-05-06 04:29 | 45.43426 | 4.23537 | 32966 ft | 422 kts | 240° |
| 2026-05-06 04:30 | 45.42080 | 4.19825 | 33320 ft | 421 kts | 240° |
| 2026-05-06 04:30 | 45.40738 | 4.16130 | 33722 ft | 419 kts | 240° |
| 2026-05-06 04:30 | 45.39405 | 4.12454 | 34101 ft | 417 kts | 240° |
| 2026-05-06 04:30 | 45.38076 | 4.08794 | 34393 ft | 416 kts | 240° |
| 2026-05-06 04:31 | 45.36747 | 4.05143 | 34662 ft | 416 kts | 240° |
| 2026-05-06 04:31 | 45.35414 | 4.01497 | 34921 ft | 415 kts | 240° |
| 2026-05-06 04:31 | 45.34084 | 3.97858 | 35169 ft | 415 kts | 240° |
| 2026-05-06 04:31 | 45.32752 | 3.94210 | 35400 ft | 415 kts | 240° |
| 2026-05-06 04:32 | 45.31427 | 3.90574 | 35618 ft | 415 kts | 240° |
| 2026-05-06 04:32 | 45.30098 | 3.86935 | 35877 ft | 414 kts | 240° |
| 2026-05-06 04:32 | 45.28770 | 3.83309 | 36117 ft | 414 kts | 241° |
| 2026-05-06 04:32 | 45.27434 | 3.79675 | 36284 ft | 416 kts | 241° |
| 2026-05-06 04:33 | 45.26093 | 3.76041 | 36477 ft | 416 kts | 239° |
| 2026-05-06 04:33 | 45.24536 | 3.72595 | 36673 ft | 415 kts | 234° |
| 2026-05-06 04:33 | 45.22883 | 3.69233 | 36874 ft | 415 kts | 234° |
| 2026-05-06 04:33 | 45.21234 | 3.65881 | 37088 ft | 415 kts | 234° |
| 2026-05-06 04:34 | 45.19582 | 3.62528 | 37294 ft | 414 kts | 234° |
| 2026-05-06 04:34 | 45.17929 | 3.59183 | 37482 ft | 414 kts | 234° |
| 2026-05-06 04:34 | 45.16279 | 3.55841 | 37679 ft | 414 kts | 234° |
| 2026-05-06 04:34 | 45.14647 | 3.52539 | 37882 ft | 414 kts | 234° |
| 2026-05-06 04:35 | 45.12995 | 3.49197 | 38055 ft | 414 kts | 234° |
| 2026-05-06 04:35 | 45.11345 | 3.45866 | 38255 ft | 413 kts | 234° |
| 2026-05-06 04:35 | 45.09692 | 3.42539 | 38437 ft | 413 kts | 234° |
| 2026-05-06 04:35 | 45.08038 | 3.39212 | 38590 ft | 413 kts | 234° |
| 2026-05-06 04:36 | 45.06384 | 3.35889 | 38717 ft | 413 kts | 234° |
| 2026-05-06 04:36 | 45.04727 | 3.32569 | 38852 ft | 413 kts | 234° |
| 2026-05-06 04:36 | 45.03069 | 3.29245 | 38902 ft | 415 kts | 234° |
| 2026-05-06 04:37 | 44.99725 | 3.22541 | 38904 ft | 419 kts | 234° |
| 2026-05-06 04:37 | 44.96368 | 3.15820 | 38902 ft | 419 kts | 234° |
| 2026-05-06 04:38 | 44.92998 | 3.09109 | 38909 ft | 419 kts | 234° |
| 2026-05-06 04:38 | 44.89620 | 3.02411 | 38907 ft | 419 kts | 234° |
| 2026-05-06 04:39 | 44.86235 | 2.95711 | 38907 ft | 420 kts | 234° |
| 2026-05-06 04:39 | 44.82896 | 2.88949 | 38905 ft | 421 kts | 236° |
| 2026-05-06 04:40 | 44.79737 | 2.82015 | 38914 ft | 421 kts | 237° |
| 2026-05-06 04:40 | 44.76604 | 2.75047 | 38920 ft | 421 kts | 237° |
| 2026-05-06 04:41 | 44.73427 | 2.68120 | 38926 ft | 421 kts | 236° |
| 2026-05-06 04:41 | 44.70217 | 2.61215 | 38931 ft | 422 kts | 236° |
| 2026-05-06 04:42 | 44.67014 | 2.54352 | 38927 ft | 423 kts | 236° |
| 2026-05-06 04:42 | 44.63785 | 2.47439 | 38930 ft | 424 kts | 236° |
| 2026-05-06 04:43 | 44.60559 | 2.40523 | 38931 ft | 423 kts | 236° |
| 2026-05-06 04:43 | 44.57329 | 2.33612 | 38925 ft | 424 kts | 236° |
| 2026-05-06 04:44 | 44.54091 | 2.26710 | 38944 ft | 423 kts | 236° |
| 2026-05-06 04:44 | 44.50852 | 2.19818 | 38943 ft | 423 kts | 236° |
| 2026-05-06 04:45 | 44.47610 | 2.12936 | 38942 ft | 423 kts | 236° |
| 2026-05-06 04:45 | 44.44365 | 2.06067 | 38940 ft | 423 kts | 236° |
| 2026-05-06 04:46 | 44.41115 | 1.99212 | 38946 ft | 423 kts | 236° |
| 2026-05-06 04:46 | 44.37861 | 1.92370 | 38945 ft | 422 kts | 236° |
| 2026-05-06 04:47 | 44.34606 | 1.85545 | 38954 ft | 422 kts | 236° |
| 2026-05-06 04:47 | 44.31356 | 1.78716 | 38956 ft | 422 kts | 236° |
| 2026-05-06 04:48 | 44.28106 | 1.71879 | 38957 ft | 423 kts | 237° |
| 2026-05-06 04:48 | 44.24931 | 1.64974 | 38961 ft | 423 kts | 237° |
| 2026-05-06 04:49 | 44.21785 | 1.58054 | 38966 ft | 423 kts | 237° |
| 2026-05-06 04:49 | 44.18618 | 1.51138 | 38969 ft | 423 kts | 237° |
| 2026-05-06 04:50 | 44.15455 | 1.44293 | 38965 ft | 423 kts | 237° |
| 2026-05-06 04:50 | 44.12258 | 1.37416 | 38969 ft | 423 kts | 237° |
| 2026-05-06 04:51 | 44.09055 | 1.30542 | 38968 ft | 423 kts | 237° |
| 2026-05-06 04:51 | 44.05854 | 1.23665 | 38968 ft | 423 kts | 237° |
| 2026-05-06 04:52 | 44.02655 | 1.16789 | 38966 ft | 424 kts | 237° |
| 2026-05-06 04:52 | 43.99454 | 1.09920 | 38965 ft | 424 kts | 237° |
| 2026-05-06 04:53 | 43.96237 | 1.03059 | 38970 ft | 424 kts | 237° |
| 2026-05-06 04:53 | 43.93009 | 0.96208 | 38973 ft | 424 kts | 237° |
| 2026-05-06 04:54 | 43.89778 | 0.89365 | 38974 ft | 424 kts | 237° |
| 2026-05-06 04:54 | 43.86068 | 0.83022 | 38973 ft | 425 kts | 229° |
| 2026-05-06 04:55 | 43.82122 | 0.76930 | 38965 ft | 425 kts | 229° |
| 2026-05-06 04:55 | 43.78178 | 0.70853 | 38972 ft | 424 kts | 229° |
| 2026-05-06 04:56 | 43.74237 | 0.64781 | 38976 ft | 424 kts | 229° |
| 2026-05-06 04:56 | 43.70293 | 0.58723 | 38976 ft | 424 kts | 229° |
| 2026-05-06 04:57 | 43.66346 | 0.52666 | 38979 ft | 424 kts | 229° |
| 2026-05-06 04:57 | 43.62391 | 0.46608 | 38970 ft | 425 kts | 229° |
| 2026-05-06 04:58 | 43.58435 | 0.40554 | 38979 ft | 424 kts | 229° |
| 2026-05-06 04:58 | 43.54482 | 0.34521 | 38984 ft | 424 kts | 229° |
| 2026-05-06 04:59 | 43.50522 | 0.28510 | 38986 ft | 424 kts | 229° |
| 2026-05-06 04:59 | 43.46557 | 0.22507 | 38985 ft | 424 kts | 229° |
| 2026-05-06 05:00 | 43.42597 | 0.16505 | 38971 ft | 423 kts | 230° |
| 2026-05-06 05:00 | 43.38642 | 0.10514 | 38989 ft | 422 kts | 230° |
| 2026-05-06 05:01 | 43.34718 | 0.04585 | 38996 ft | 421 kts | 230° |
| 2026-05-06 05:01 | 43.30762 | -0.01360 | 39016 ft | 421 kts | 230° |
| 2026-05-06 05:02 | 43.26808 | -0.07302 | 39004 ft | 422 kts | 230° |
| 2026-05-06 05:02 | 43.22843 | -0.13246 | 38993 ft | 422 kts | 230° |
| 2026-05-06 05:03 | 43.18882 | -0.19173 | 38995 ft | 422 kts | 230° |
| 2026-05-06 05:03 | 43.14922 | -0.25095 | 38999 ft | 421 kts | 230° |
| 2026-05-06 05:04 | 43.10956 | -0.30994 | 39001 ft | 421 kts | 229° |
| 2026-05-06 05:04 | 43.06988 | -0.36876 | 39002 ft | 421 kts | 229° |
| 2026-05-06 05:05 | 43.03019 | -0.42761 | 39004 ft | 421 kts | 229° |
| 2026-05-06 05:05 | 42.99056 | -0.48636 | 39004 ft | 420 kts | 230° |
| 2026-05-06 05:06 | 42.95092 | -0.54504 | 39013 ft | 420 kts | 229° |
| 2026-05-06 05:06 | 42.91130 | -0.60344 | 39015 ft | 419 kts | 229° |
| 2026-05-06 05:07 | 42.87839 | -0.66798 | 39017 ft | 414 kts | 248° |
| 2026-05-06 05:07 | 42.86373 | -0.74336 | 39014 ft | 412 kts | 260° |
| 2026-05-06 05:08 | 42.85369 | -0.82028 | 39026 ft | 413 kts | 260° |
| 2026-05-06 05:08 | 42.84346 | -0.89736 | 39022 ft | 413 kts | 260° |
| 2026-05-06 05:09 | 42.83323 | -0.97441 | 39022 ft | 414 kts | 259° |
| 2026-05-06 05:09 | 42.82291 | -1.05156 | 39027 ft | 414 kts | 259° |
| 2026-05-06 05:10 | 42.81261 | -1.12812 | 39028 ft | 413 kts | 259° |
| 2026-05-06 05:10 | 42.80220 | -1.20506 | 39033 ft | 413 kts | 259° |
| 2026-05-06 05:11 | 42.79175 | -1.28195 | 39028 ft | 413 kts | 259° |
| 2026-05-06 05:11 | 42.78121 | -1.35892 | 39026 ft | 413 kts | 259° |
| 2026-05-06 05:12 | 42.77069 | -1.43574 | 39020 ft | 413 kts | 259° |
| 2026-05-06 05:12 | 42.76010 | -1.51246 | 39014 ft | 412 kts | 259° |
| 2026-05-06 05:13 | 42.74949 | -1.58915 | 39015 ft | 413 kts | 259° |
| 2026-05-06 05:13 | 42.73874 | -1.66587 | 39013 ft | 413 kts | 259° |
| 2026-05-06 05:14 | 42.72487 | -1.74170 | 39018 ft | 414 kts | 253° |
| 2026-05-06 05:14 | 42.70808 | -1.81659 | 39020 ft | 414 kts | 253° |
| 2026-05-06 05:15 | 42.69118 | -1.89152 | 39031 ft | 415 kts | 253° |
| 2026-05-06 05:15 | 42.67420 | -1.96646 | 39033 ft | 415 kts | 253° |
| 2026-05-06 05:16 | 42.65718 | -2.04139 | 39037 ft | 415 kts | 253° |
| 2026-05-06 05:16 | 42.64293 | -2.10362 | 39040 ft | 415 kts | 253° |
| 2026-05-06 05:17 | 42.62291 | -2.19064 | 39042 ft | 415 kts | 253° |
| 2026-05-06 05:17 | 42.60491 | -2.26505 | 39041 ft | 415 kts | 252° |
| 2026-05-06 05:18 | 42.58655 | -2.33934 | 39025 ft | 416 kts | 252° |
| 2026-05-06 05:18 | 42.57129 | -2.40165 | 39029 ft | 415 kts | 252° |
| 2026-05-06 05:19 | 42.55313 | -2.47599 | 39032 ft | 415 kts | 252° |
| 2026-05-06 05:19 | 42.53494 | -2.55032 | 39031 ft | 415 kts | 252° |
| 2026-05-06 05:20 | 42.51670 | -2.62459 | 39038 ft | 415 kts | 252° |
| 2026-05-06 05:20 | 42.49844 | -2.69880 | 39037 ft | 415 kts | 252° |
| 2026-05-06 05:21 | 42.48022 | -2.77251 | 39041 ft | 415 kts | 252° |
| 2026-05-06 05:21 | 42.46165 | -2.84721 | 39040 ft | 416 kts | 252° |
| 2026-05-06 05:22 | 42.44021 | -2.91936 | 39047 ft | 417 kts | 246° |
| 2026-05-06 05:22 | 42.41593 | -2.99067 | 39044 ft | 417 kts | 246° |
| 2026-05-06 05:23 | 42.39166 | -3.06200 | 39053 ft | 417 kts | 246° |
| 2026-05-06 05:23 | 42.35521 | -3.16882 | 39032 ft | 417 kts | 246° |
| 2026-05-06 05:24 | 42.33080 | -3.23999 | 39051 ft | 417 kts | 246° |
| 2026-05-06 05:24 | 42.30638 | -3.31099 | 39055 ft | 417 kts | 246° |
| 2026-05-06 05:25 | 42.28181 | -3.38194 | 39057 ft | 417 kts | 246° |
| 2026-05-06 05:25 | 42.25735 | -3.45281 | 39049 ft | 416 kts | 246° |
| 2026-05-06 05:26 | 42.23281 | -3.52358 | 39048 ft | 416 kts | 246° |
| 2026-05-06 05:26 | 42.20827 | -3.59425 | 39047 ft | 416 kts | 246° |
| 2026-05-06 05:27 | 42.18368 | -3.66505 | 39060 ft | 417 kts | 246° |
| 2026-05-06 05:27 | 42.15904 | -3.73583 | 39062 ft | 418 kts | 246° |
| 2026-05-06 05:28 | 42.13418 | -3.80664 | 39051 ft | 418 kts | 246° |
| 2026-05-06 05:28 | 42.10928 | -3.87739 | 39060 ft | 418 kts | 246° |
| 2026-05-06 05:29 | 42.08444 | -3.94801 | 39068 ft | 417 kts | 246° |
| 2026-05-06 05:29 | 42.05961 | -4.01859 | 39065 ft | 418 kts | 246° |
| 2026-05-06 05:30 | 42.03466 | -4.08917 | 39064 ft | 417 kts | 246° |
| 2026-05-06 05:30 | 42.00918 | -4.15932 | 39075 ft | 418 kts | 245° |
| 2026-05-06 05:31 | 41.98285 | -4.22837 | 39072 ft | 418 kts | 244° |
| 2026-05-06 05:31 | 41.95615 | -4.29763 | 39076 ft | 418 kts | 244° |
| 2026-05-06 05:32 | 41.92952 | -4.36692 | 39073 ft | 417 kts | 244° |
| 2026-05-06 05:32 | 41.90304 | -4.43618 | 39081 ft | 417 kts | 244° |
| 2026-05-06 05:33 | 41.87651 | -4.50540 | 39076 ft | 417 kts | 244° |
| 2026-05-06 05:33 | 41.85001 | -4.57447 | 39077 ft | 416 kts | 244° |
| 2026-05-06 05:34 | 41.82345 | -4.64343 | 39073 ft | 416 kts | 244° |
| 2026-05-06 05:34 | 41.79686 | -4.71227 | 39022 ft | 416 kts | 244° |
| 2026-05-06 05:35 | 41.77016 | -4.78113 | 39008 ft | 416 kts | 244° |
| 2026-05-06 05:35 | 41.74344 | -4.84987 | 39008 ft | 416 kts | 244° |
| 2026-05-06 05:36 | 41.71669 | -4.91862 | 39005 ft | 416 kts | 244° |
| 2026-05-06 05:36 | 41.68999 | -4.98732 | 39031 ft | 416 kts | 244° |
| 2026-05-06 05:37 | 41.66322 | -5.05608 | 39016 ft | 417 kts | 244° |
| 2026-05-06 05:37 | 41.63636 | -5.12462 | 39035 ft | 417 kts | 244° |
| 2026-05-06 05:38 | 41.60940 | -5.19320 | 39048 ft | 417 kts | 244° |
| 2026-05-06 05:38 | 41.58247 | -5.26166 | 39057 ft | 416 kts | 244° |
| 2026-05-06 05:39 | 41.55542 | -5.33005 | 39059 ft | 416 kts | 244° |
| 2026-05-06 05:39 | 41.52836 | -5.39832 | 39062 ft | 416 kts | 244° |
| 2026-05-06 05:40 | 41.50136 | -5.46668 | 39061 ft | 416 kts | 244° |
| 2026-05-06 05:40 | 41.47428 | -5.53495 | 39063 ft | 417 kts | 244° |
| 2026-05-06 05:41 | 41.44725 | -5.60282 | 39060 ft | 417 kts | 244° |
| 2026-05-06 05:41 | 41.42002 | -5.67108 | 39048 ft | 417 kts | 244° |
| 2026-05-06 05:42 | 41.39277 | -5.73936 | 39060 ft | 417 kts | 244° |
| 2026-05-06 05:42 | 41.36543 | -5.80750 | 39064 ft | 417 kts | 244° |
| 2026-05-06 05:43 | 41.33805 | -5.87570 | 39066 ft | 418 kts | 244° |
| 2026-05-06 05:43 | 41.31060 | -5.94379 | 39067 ft | 418 kts | 244° |
| 2026-05-06 05:44 | 41.28305 | -6.01188 | 39068 ft | 418 kts | 244° |
| 2026-05-06 05:44 | 41.25551 | -6.07993 | 39072 ft | 418 kts | 243° |
| 2026-05-06 05:45 | 41.22794 | -6.14790 | 39061 ft | 418 kts | 244° |
| 2026-05-06 05:45 | 41.20032 | -6.21593 | 39073 ft | 418 kts | 243° |
| 2026-05-06 05:46 | 41.17217 | -6.28354 | 39045 ft | 419 kts | 238° |
| 2026-05-06 05:46 | 41.13743 | -6.34584 | 39055 ft | 420 kts | 235° |
| 2026-05-06 05:47 | 41.10123 | -6.40675 | 39058 ft | 422 kts | 228° |
| 2026-05-06 05:47 | 41.05971 | -6.46194 | 39058 ft | 423 kts | 227° |
| 2026-05-06 05:48 | 41.01808 | -6.51700 | 39067 ft | 423 kts | 228° |
| 2026-05-06 05:48 | 40.97641 | -6.57199 | 39057 ft | 423 kts | 228° |
| 2026-05-06 05:49 | 40.93463 | -6.62703 | 39034 ft | 424 kts | 227° |
| 2026-05-06 05:49 | 40.89287 | -6.68188 | 39048 ft | 423 kts | 227° |
| 2026-05-06 05:50 | 40.85103 | -6.73668 | 39052 ft | 423 kts | 227° |
| 2026-05-06 05:50 | 40.80928 | -6.79134 | 39057 ft | 423 kts | 227° |
| 2026-05-06 05:51 | 40.76751 | -6.84599 | 39062 ft | 423 kts | 227° |
| 2026-05-06 05:51 | 40.72566 | -6.90045 | 39062 ft | 423 kts | 227° |
| 2026-05-06 05:52 | 40.68401 | -6.95459 | 39048 ft | 423 kts | 227° |
| 2026-05-06 05:52 | 40.64210 | -7.00904 | 39058 ft | 424 kts | 227° |
| 2026-05-06 05:53 | 40.60012 | -7.06350 | 39060 ft | 423 kts | 227° |
| 2026-05-06 05:53 | 40.55817 | -7.11780 | 39061 ft | 423 kts | 227° |
| 2026-05-06 05:54 | 40.51620 | -7.17208 | 39064 ft | 423 kts | 227° |
| 2026-05-06 05:54 | 40.47415 | -7.22624 | 39060 ft | 423 kts | 227° |
| 2026-05-06 05:55 | 40.43213 | -7.28035 | 39062 ft | 423 kts | 227° |
| 2026-05-06 05:55 | 40.39002 | -7.33447 | 39061 ft | 424 kts | 227° |
| 2026-05-06 05:56 | 40.34792 | -7.38847 | 39063 ft | 423 kts | 227° |
| 2026-05-06 05:56 | 40.30578 | -7.44243 | 39061 ft | 423 kts | 227° |
| 2026-05-06 05:57 | 40.26360 | -7.49625 | 39066 ft | 423 kts | 227° |
| 2026-05-06 05:57 | 40.22141 | -7.55002 | 39052 ft | 423 kts | 227° |
| 2026-05-06 05:58 | 40.17917 | -7.60377 | 39065 ft | 423 kts | 227° |
| 2026-05-06 05:58 | 40.13692 | -7.65744 | 39060 ft | 424 kts | 227° |
| 2026-05-06 05:59 | 40.09456 | -7.71108 | 39070 ft | 424 kts | 227° |
| 2026-05-06 05:59 | 40.05226 | -7.76476 | 39069 ft | 424 kts | 227° |
| 2026-05-06 06:00 | 40.00990 | -7.81838 | 39075 ft | 424 kts | 227° |
| 2026-05-06 06:00 | 39.96747 | -7.87182 | 39057 ft | 424 kts | 226° |
| 2026-05-06 06:01 | 39.92527 | -7.92482 | 39059 ft | 424 kts | 227° |
| 2026-05-06 06:01 | 39.90406 | -7.95148 | 38900 ft | 423 kts | 227° |
| 2026-05-06 06:01 | 39.88297 | -7.97807 | 38672 ft | 421 kts | 227° |
| 2026-05-06 06:02 | 39.86191 | -8.00461 | 38388 ft | 420 kts | 227° |
| 2026-05-06 06:02 | 39.84088 | -8.03102 | 38102 ft | 420 kts | 227° |
| 2026-05-06 06:02 | 39.81983 | -8.05736 | 37827 ft | 420 kts | 227° |
| 2026-05-06 06:02 | 39.79877 | -8.08367 | 37552 ft | 420 kts | 226° |
| 2026-05-06 06:03 | 39.77767 | -8.10999 | 37274 ft | 420 kts | 227° |
| 2026-05-06 06:03 | 39.75663 | -8.13626 | 36838 ft | 419 kts | 227° |
| 2026-05-06 06:03 | 39.73557 | -8.16257 | 36092 ft | 421 kts | 227° |
| 2026-05-06 06:03 | 39.71450 | -8.18882 | 35563 ft | 417 kts | 227° |
| 2026-05-06 06:04 | 39.69362 | -8.21479 | 35083 ft | 413 kts | 227° |
| 2026-05-06 06:04 | 39.67966 | -8.23219 | 34744 ft | 411 kts | 227° |
| 2026-05-06 06:04 | 39.65250 | -8.26605 | 34072 ft | 406 kts | 227° |
| 2026-05-06 06:04 | 39.63877 | -8.28316 | 33676 ft | 404 kts | 227° |
| 2026-05-06 06:05 | 39.61860 | -8.30823 | 33195 ft | 399 kts | 227° |
| 2026-05-06 06:05 | 39.59861 | -8.33301 | 32708 ft | 395 kts | 227° |
| 2026-05-06 06:05 | 39.57883 | -8.35747 | 32212 ft | 391 kts | 227° |
| 2026-05-06 06:05 | 39.55925 | -8.38169 | 31745 ft | 387 kts | 227° |
| 2026-05-06 06:06 | 39.53986 | -8.40567 | 31279 ft | 384 kts | 227° |
| 2026-05-06 06:06 | 39.52061 | -8.42946 | 30806 ft | 380 kts | 227° |
| 2026-05-06 06:06 | 39.50181 | -8.45269 | 30368 ft | 377 kts | 227° |
| 2026-05-06 06:06 | 39.48270 | -8.47633 | 29879 ft | 373 kts | 227° |
| 2026-05-06 06:07 | 39.46409 | -8.49932 | 29452 ft | 367 kts | 227° |
| 2026-05-06 06:07 | 39.44597 | -8.52169 | 29020 ft | 362 kts | 227° |
| 2026-05-06 06:07 | 39.42791 | -8.54400 | 28612 ft | 356 kts | 227° |
| 2026-05-06 06:07 | 39.40986 | -8.56624 | 28214 ft | 351 kts | 227° |
| 2026-05-06 06:08 | 39.39227 | -8.58785 | 27793 ft | 347 kts | 227° |
| 2026-05-06 06:08 | 39.37511 | -8.60892 | 27425 ft | 342 kts | 227° |
| 2026-05-06 06:08 | 39.35795 | -8.62997 | 27040 ft | 338 kts | 227° |
| 2026-05-06 06:08 | 39.34076 | -8.65103 | 26650 ft | 334 kts | 227° |
| 2026-05-06 06:09 | 39.32421 | -8.67132 | 26277 ft | 331 kts | 227° |
| 2026-05-06 06:09 | 39.30757 | -8.69172 | 25891 ft | 328 kts | 227° |
| 2026-05-06 06:09 | 39.29108 | -8.71197 | 25507 ft | 326 kts | 227° |
| 2026-05-06 06:09 | 39.27466 | -8.73214 | 25105 ft | 326 kts | 227° |
| 2026-05-06 06:10 | 39.25826 | -8.75224 | 24705 ft | 325 kts | 227° |
| 2026-05-06 06:10 | 39.24188 | -8.77231 | 24284 ft | 324 kts | 226° |
| 2026-05-06 06:10 | 39.22558 | -8.79224 | 23889 ft | 323 kts | 226° |
| 2026-05-06 06:10 | 39.20931 | -8.81209 | 23449 ft | 322 kts | 226° |
| 2026-05-06 06:11 | 39.19309 | -8.83184 | 23016 ft | 320 kts | 226° |
| 2026-05-06 06:11 | 39.17694 | -8.85148 | 22597 ft | 318 kts | 226° |
| 2026-05-06 06:11 | 39.16094 | -8.87095 | 22193 ft | 316 kts | 226° |
| 2026-05-06 06:11 | 39.14504 | -8.89031 | 21794 ft | 314 kts | 226° |
| 2026-05-06 06:12 | 39.12922 | -8.90957 | 21399 ft | 312 kts | 226° |
| 2026-05-06 06:12 | 39.11345 | -8.92877 | 21002 ft | 311 kts | 226° |
| 2026-05-06 06:12 | 39.09776 | -8.94787 | 20615 ft | 310 kts | 226° |
| 2026-05-06 06:12 | 39.08211 | -8.96691 | 20230 ft | 309 kts | 226° |
| 2026-05-06 06:13 | 39.06647 | -8.98591 | 19842 ft | 309 kts | 226° |
| 2026-05-06 06:13 | 39.05088 | -9.00483 | 19463 ft | 308 kts | 226° |
| 2026-05-06 06:13 | 39.03531 | -9.02371 | 19073 ft | 308 kts | 226° |
| 2026-05-06 06:13 | 39.01975 | -9.04258 | 18693 ft | 307 kts | 226° |
| 2026-05-06 06:14 | 39.00421 | -9.06141 | 18302 ft | 307 kts | 226° |
| 2026-05-06 06:14 | 38.98865 | -9.08022 | 17882 ft | 306 kts | 226° |
| 2026-05-06 06:14 | 38.97318 | -9.09891 | 17521 ft | 304 kts | 226° |
| 2026-05-06 06:14 | 38.95781 | -9.11748 | 17147 ft | 303 kts | 226° |
| 2026-05-06 06:15 | 38.94245 | -9.13601 | 16775 ft | 303 kts | 226° |
| 2026-05-06 06:15 | 38.92714 | -9.15451 | 16410 ft | 302 kts | 226° |
| 2026-05-06 06:15 | 38.91181 | -9.17297 | 16050 ft | 301 kts | 226° |
| 2026-05-06 06:15 | 38.89653 | -9.19136 | 15688 ft | 301 kts | 226° |
| 2026-05-06 06:16 | 38.88144 | -9.20950 | 15329 ft | 301 kts | 226° |
| 2026-05-06 06:16 | 38.86614 | -9.22790 | 14968 ft | 301 kts | 226° |
| 2026-05-06 06:16 | 38.85082 | -9.24629 | 14609 ft | 302 kts | 226° |
| 2026-05-06 06:16 | 38.83533 | -9.26492 | 14242 ft | 301 kts | 226° |
| 2026-05-06 06:17 | 38.82001 | -9.28336 | 13866 ft | 302 kts | 226° |
| 2026-05-06 06:17 | 38.80488 | -9.30158 | 13463 ft | 303 kts | 226° |
| 2026-05-06 06:17 | 38.78954 | -9.32003 | 13104 ft | 300 kts | 226° |
| 2026-05-06 06:17 | 38.77363 | -9.33694 | 12541 ft | 298 kts | 213° |
| 2026-05-06 06:18 | 38.75422 | -9.34619 | 11911 ft | 301 kts | 191° |
| 2026-05-06 06:18 | 38.73336 | -9.34561 | 11261 ft | 302 kts | 173° |
| 2026-05-06 06:18 | 38.71259 | -9.34167 | 10613 ft | 301 kts | 173° |
| 2026-05-06 06:18 | 38.69191 | -9.33762 | 10001 ft | 299 kts | 172° |
| 2026-05-06 06:19 | 38.67141 | -9.33359 | 9322 ft | 297 kts | 172° |
| 2026-05-06 06:19 | 38.65108 | -9.32962 | 8670 ft | 294 kts | 172° |
| 2026-05-06 06:19 | 38.63096 | -9.32573 | 8029 ft | 291 kts | 172° |
| 2026-05-06 06:19 | 38.61110 | -9.32174 | 7449 ft | 285 kts | 168° |
| 2026-05-06 06:20 | 38.59365 | -9.31133 | 6965 ft | 275 kts | 136° |
| 2026-05-06 06:20 | 38.58322 | -9.29224 | 6475 ft | 253 kts | 107° |
| 2026-05-06 06:20 | 38.58084 | -9.27119 | 5965 ft | 231 kts | 81° |
| 2026-05-06 06:20 | 38.58516 | -9.25217 | 5390 ft | 219 kts | 58° |
| 2026-05-06 06:21 | 38.59461 | -9.23752 | 4756 ft | 212 kts | 36° |
| 2026-05-06 06:21 | 38.60731 | -9.22868 | 4115 ft | 207 kts | 21° |
| 2026-05-06 06:21 | 38.62056 | -9.22168 | 3485 ft | 205 kts | 21° |
| 2026-05-06 06:21 | 38.63318 | -9.21497 | 3211 ft | 187 kts | 20° |
| 2026-05-06 06:22 | 38.64488 | -9.20874 | 2988 ft | 178 kts | 20° |
| 2026-05-06 06:22 | 38.65612 | -9.20276 | 2737 ft | 173 kts | 20° |
| 2026-05-06 06:22 | 38.66716 | -9.19688 | 2507 ft | 170 kts | 20° |
| 2026-05-06 06:22 | 38.67805 | -9.19108 | 2249 ft | 169 kts | 20° |
| 2026-05-06 06:23 | 38.68867 | -9.18542 | 2029 ft | 158 kts | 20° |
| 2026-05-06 06:23 | 38.69837 | -9.18023 | 1814 ft | 145 kts | 20° |
| 2026-05-06 06:23 | 38.70753 | -9.17535 | 1623 ft | 140 kts | 20° |
| 2026-05-06 06:23 | 38.71643 | -9.17060 | 1428 ft | 138 kts | 19° |
| 2026-05-06 06:24 | 38.72524 | -9.16590 | 1247 ft | 137 kts | 20° |
| 2026-05-06 06:24 | 38.73403 | -9.16121 | 1060 ft | 137 kts | 20° |
| 2026-05-06 06:24 | 38.74287 | -9.15650 | 874 ft | 139 kts | 20° |
| 2026-05-06 06:24 | 38.75184 | -9.15171 | 689 ft | 141 kts | 20° |
| 2026-05-06 06:25 | 38.76087 | -9.14688 | 513 ft | 140 kts | 20° |
| 2026-05-06 06:25 | 38.76987 | -9.14203 | 358 ft | 136 kts | 20° |
| 2026-05-06 06:25 | 38.78150 | -9.13582 | 369 ft | 26 kts | 24° |
| 2026-05-06 06:26 | 38.78299 | -9.13453 | 368 ft | 27 kts | 45° |
| 2026-05-06 06:26 | 38.78375 | -9.13341 | 362 ft | 12 kts | 64° |
| 2026-05-06 06:26 | 38.78336 | -9.13267 | 360 ft | 11 kts | 170° |
| 2026-05-06 06:26 | 38.78276 | -9.13287 | 363 ft | 8 kts | 201° |
| 2026-05-06 06:27 | 38.78222 | -9.13315 | 360 ft | 8 kts | 202° |
| 2026-05-06 06:27 | 38.78172 | -9.13342 | 359 ft | 8 kts | 202° |
| 2026-05-06 06:27 | 38.78106 | -9.13377 | 362 ft | 12 kts | 202° |
| 2026-05-06 06:27 | 38.78030 | -9.13411 | 359 ft | 11 kts | 189° |
| 2026-05-06 06:28 | 38.77946 | -9.13395 | 356 ft | 14 kts | 168° |
| 2026-05-06 06:28 | 38.77842 | -9.13368 | 348 ft | 16 kts | 168° |
| 2026-05-06 06:28 | 38.77746 | -9.13342 | 342 ft | 15 kts | 168° |
| 2026-05-06 06:28 | 38.77640 | -9.13321 | 338 ft | 15 kts | 177° |
| 2026-05-06 06:29 | 38.77537 | -9.13308 | 338 ft | 15 kts | 168° |
| 2026-05-06 06:29 | 38.77430 | -9.13280 | 338 ft | 16 kts | 168° |
| 2026-05-06 06:29 | 38.77325 | -9.13257 | 338 ft | 16 kts | 172° |
| 2026-05-06 06:29 | 38.77212 | -9.13229 | 334 ft | 17 kts | 168° |
| 2026-05-06 06:30 | 38.77101 | -9.13198 | 336 ft | 12 kts | 168° |
| 2026-05-06 06:30 | 38.77034 | -9.13180 | 338 ft | 8 kts | 168° |
| 2026-05-06 06:30 | 38.77017 | -9.13159 | 333 ft | 4 kts | 96° |
| 2026-05-06 06:30 | 38.77022 | -9.13123 | 337 ft | 3 kts | 78° |
| 2026-05-06 06:31 | 38.77025 | -9.13101 | 337 ft | 2 kts | 78° |
| 2026-05-06 06:31 | 38.77027 | -9.13090 | 337 ft | 0 kts | 78° |
| 2026-05-06 06:31 | 38.77027 | -9.13089 | 337 ft | 0 kts | 78° |